Pasadena, Texas
Current Conditions -  °F | °C
As of 6:50 PM on Thursday 27 Nov 2014 (Local Time) from KEFD Reporting Station
Clear Clear  
Wind Chill: 59°   Ceiling: Unl
Heat Index: 59°   Visibility: 10mi
Dew Point: 37°   Wind: 0mph
Humidity: 45%   Direction: NA
Pressure: 30.43"   Gusts: NA
Location:  29.69°N, 95.2°W
Report Text: KEFD 280050Z 00000KT 10SM CLR 15/03 A3043
Loading
Personal Weather Stations






























Interactive Weather Map New forecast layout! Learn more

10-Day Weather Forecast

Advertisements
Track Severe Weather on mobile